EDT,Max TemperatureF,Mean TemperatureF,Min TemperatureF,Max Dew PointF,MeanDew PointF,Min DewpointF,Max Humidity, Mean Humidity, Min Humidity, Max Sea Level PressureIn, Mean Sea Level PressureIn, Min Sea Level PressureIn, Max VisibilityMiles, Mean VisibilityMiles, Min VisibilityMiles, Max Wind SpeedMPH, Mean Wind SpeedMPH, Max Gust SpeedMPH,PrecipitationIn, CloudCover, Events, WindDirDegrees
2013-10-1,81,70,58,60,57,56,90,66,42,30.09,30.04,30.01,10,8,4,16,5,21,0.00,2,,229
2013-10-2,83,71,59,64,61,57,90,72,54,30.12,30.07,30.03,10,8,4,9,2,15,0.00,5,,210
2013-10-3,80,74,68,68,65,63,90,74,58,30.10,30.05,30.01,10,7,1,25,4,33,0.41,7,Rain-Thunderstorm,198
2013-10-4,85,75,65,70,65,62,93,72,51,30.09,30.06,30.02,10,8,2,15,4,20,0.46,5,Rain,212
2013-10-5,83,75,66,71,67,64,93,76,58,30.07,30.01,29.94,10,8,1,23,5,28,0.46,7,Rain,186
2013-10-6,79,67,54,68,63,52,100,79,58,29.94,29.83,29.70,10,6,1,25,10,32,2.23,8,Rain-Thunderstorm,214
2013-10-7,62,55,48,54,46,41,100,74,48,30.17,29.92,29.79,10,9,3,20,9,26,0.24,6,Rain,255
2013-10-8,69,56,43,47,43,41,96,67,37,30.29,30.24,30.17,10,10,7,12,4,18,0.00,0,,63
2013-10-9,72,60,48,46,44,42,80,58,35,30.29,30.23,30.19,10,10,9,12,4,15,0.00,0,,90
2013-10-10,76,61,45,52,44,40,82,58,33,30.20,30.15,30.08,10,10,10,7,1,12,0.00,0,,16
2013-10-11,79,64,48,52,46,44,86,58,30,30.12,30.07,30.03,10,10,10,10,4,18,0.00,0,,45
2013-10-12,74,64,54,57,55,52,86,72,57,30.13,30.09,30.05,10,10,9,9,3,12,0.00,3,,169
2013-10-13,71,64,56,59,57,53,90,79,68,30.29,30.22,30.14,10,7,4,14,5,17,0.00,6,,356
2013-10-14,73,61,49,51,49,46,93,69,44,30.34,30.27,30.21,10,10,7,16,6,20,0.00,1,,26
2013-10-15,71,60,49,62,55,46,93,83,73,30.21,30.07,29.96,10,7,1,10,5,15,0.01,6,Rain,146
2013-10-16,67,59,51,63,59,46,93,80,67,29.95,29.90,29.86,10,8,2,16,7,21,0.22,8,Rain,218
2013-10-17,56,50,44,48,45,41,89,80,71,29.96,29.90,29.84,10,9,2,16,5,21,0.14,6,Rain,286
2013-10-18,65,54,43,45,42,38,96,67,37,30.04,29.98,29.94,10,9,4,17,6,23,0.00,1,,197
2013-10-19,51,46,40,46,42,38,86,76,66,29.99,29.88,29.81,10,8,2,21,6,24,0.16,6,Rain,243
2013-10-20,62,50,37,39,37,34,92,67,42,30.04,30.01,29.98,10,10,9,18,8,25,0.00,1,,186
2013-10-21,67,55,42,48,38,35,76,54,32,30.03,29.96,29.88,10,10,7,24,9,30,0.01,3,Rain,199
2013-10-22,52,44,36,43,31,23,83,58,32,30.03,29.95,29.89,10,10,7,16,6,22,0.10,6,Rain,261
2013-10-23,48,42,35,37,35,31,92,73,53,30.02,29.87,29.78,10,8,3,28,9,31,0.49,8,Rain-Snow,337
2013-10-24,46,41,35,32,29,25,82,64,45,30.23,30.10,30.01,10,10,10,20,8,23,T,6,,258
2013-10-25,49,40,30,32,27,24,85,64,42,30.41,30.33,30.25,10,10,10,16,7,20,0.00,2,,260
2013-10-26,48,40,32,34,27,24,75,57,39,30.27,30.09,29.93,10,10,10,23,10,32,0.00,5,,214
2013-10-27,56,44,31,35,31,28,96,66,35,30.13,30.08,30.04,10,9,6,10,2,14,0.00,4,,255
2013-10-28,62,47,32,38,32,28,89,61,32,30.31,30.22,30.11,10,10,6,9,1,14,0.00,3,,59
2013-10-29,60,48,36,40,36,34,92,65,37,30.38,30.32,30.24,10,8,4,7,3,9,0.00,5,,81
2013-10-30,65,58,50,58,50,37,84,72,59,30.22,30.13,30.04,10,8,2,10,4,13,T,8,,146
2013-10-31,67,62,57,60,57,55,97,83,68,30.01,29.72,29.36,10,7,2,33,13,49,0.98,8,Rain,173